sensor_id;sensor_type;location;lat;lon;timestamp;P1;durP1;ratioP1;P2;durP2;ratioP2
40284;SDS011;25997;50.214;19.354;2023-09-30T00:01:17;15.40;;;9.30;;
40284;SDS011;25997;50.214;19.354;2023-09-30T00:04:20;14.52;;;10.73;;
40284;SDS011;25997;50.214;19.354;2023-09-30T00:07:24;13.23;;;9.45;;
40284;SDS011;25997;50.214;19.354;2023-09-30T00:10:27;12.90;;;10.45;;
40284;SDS011;25997;50.214;19.354;2023-09-30T00:13:30;11.15;;;10.02;;
40284;SDS011;25997;50.214;19.354;2023-09-30T00:16:33;12.50;;;10.63;;
40284;SDS011;25997;50.214;19.354;2023-09-30T00:19:36;12.82;;;9.73;;
40284;SDS011;25997;50.214;19.354;2023-09-30T00:22:40;11.15;;;9.75;;
40284;SDS011;25997;50.214;19.354;2023-09-30T00:25:42;13.18;;;9.77;;
40284;SDS011;25997;50.214;19.354;2023-09-30T00:28:45;13.25;;;10.35;;
40284;SDS011;25997;50.214;19.354;2023-09-30T00:31:47;10.98;;;9.00;;
40284;SDS011;25997;50.214;19.354;2023-09-30T00:34:50;14.38;;;9.18;;
40284;SDS011;25997;50.214;19.354;2023-09-30T00:37:54;11.32;;;10.13;;
40284;SDS011;25997;50.214;19.354;2023-09-30T00:40:57;10.63;;;9.52;;
40284;SDS011;25997;50.214;19.354;2023-09-30T00:43:59;16.70;;;9.25;;
40284;SDS011;25997;50.214;19.354;2023-09-30T00:47:02;9.82;;;8.82;;
40284;SDS011;25997;50.214;19.354;2023-09-30T00:50:05;13.15;;;9.63;;
40284;SDS011;25997;50.214;19.354;2023-09-30T00:53:12;11.40;;;9.25;;
40284;SDS011;25997;50.214;19.354;2023-09-30T00:56:15;12.50;;;9.70;;
40284;SDS011;25997;50.214;19.354;2023-09-30T00:59:19;12.48;;;8.68;;
40284;SDS011;25997;50.214;19.354;2023-09-30T01:02:22;12.13;;;8.73;;
40284;SDS011;25997;50.214;19.354;2023-09-30T01:05:24;13.18;;;9.40;;
40284;SDS011;25997;50.214;19.354;2023-09-30T01:08:28;14.50;;;10.30;;
40284;SDS011;25997;50.214;19.354;2023-09-30T01:11:31;13.32;;;8.93;;
40284;SDS011;25997;50.214;19.354;2023-09-30T01:14:34;18.88;;;9.40;;
40284;SDS011;25997;50.214;19.354;2023-09-30T01:17:39;11.93;;;8.88;;
40284;SDS011;25997;50.214;19.354;2023-09-30T01:20:41;9.73;;;8.75;;
40284;SDS011;25997;50.214;19.354;2023-09-30T01:23:45;10.70;;;8.77;;
40284;SDS011;25997;50.214;19.354;2023-09-30T01:26:48;14.75;;;9.57;;
40284;SDS011;25997;50.214;19.354;2023-09-30T01:29:51;12.27;;;9.60;;
40284;SDS011;25997;50.214;19.354;2023-09-30T01:32:53;10.57;;;9.32;;
40284;SDS011;25997;50.214;19.354;2023-09-30T01:35:57;15.20;;;9.65;;
40284;SDS011;25997;50.214;19.354;2023-09-30T01:39:01;10.32;;;9.18;;
40284;SDS011;25997;50.214;19.354;2023-09-30T01:42:04;10.98;;;9.40;;
40284;SDS011;25997;50.214;19.354;2023-09-30T01:45:08;11.25;;;9.43;;
40284;SDS011;25997;50.214;19.354;2023-09-30T01:48:12;14.23;;;9.73;;
40284;SDS011;25997;50.214;19.354;2023-09-30T01:51:14;10.73;;;9.10;;
40284;SDS011;25997;50.214;19.354;2023-09-30T01:54:18;16.35;;;9.27;;
40284;SDS011;25997;50.214;19.354;2023-09-30T01:57:21;11.88;;;9.23;;
40284;SDS011;25997;50.214;19.354;2023-09-30T02:00:24;10.98;;;9.65;;
40284;SDS011;25997;50.214;19.354;2023-09-30T02:03:28;13.40;;;8.90;;
40284;SDS011;25997;50.214;19.354;2023-09-30T02:06:31;11.10;;;9.32;;
40284;SDS011;25997;50.214;19.354;2023-09-30T02:09:36;13.98;;;9.68;;
40284;SDS011;25997;50.214;19.354;2023-09-30T02:12:38;11.05;;;9.25;;
40284;SDS011;25997;50.214;19.354;2023-09-30T02:15:41;12.85;;;9.07;;
40284;SDS011;25997;50.214;19.354;2023-09-30T02:18:43;12.70;;;9.60;;
40284;SDS011;25997;50.214;19.354;2023-09-30T02:21:46;11.00;;;9.25;;
40284;SDS011;25997;50.214;19.354;2023-09-30T02:24:50;11.85;;;8.90;;
40284;SDS011;25997;50.214;19.354;2023-09-30T02:27:55;12.35;;;8.90;;
40284;SDS011;25997;50.214;19.354;2023-09-30T02:30:59;11.35;;;10.15;;
40284;SDS011;25997;50.214;19.354;2023-09-30T02:34:02;15.88;;;9.75;;
40284;SDS011;25997;50.214;19.354;2023-09-30T02:37:05;13.43;;;9.73;;
40284;SDS011;25997;50.214;19.354;2023-09-30T02:40:09;11.85;;;9.23;;
40284;SDS011;25997;50.214;19.354;2023-09-30T02:43:12;11.77;;;9.40;;
40284;SDS011;25997;50.214;19.354;2023-09-30T02:46:15;11.45;;;8.80;;
40284;SDS011;25997;50.214;19.354;2023-09-30T02:49:17;14.55;;;10.05;;
40284;SDS011;25997;50.214;19.354;2023-09-30T02:52:20;11.23;;;9.55;;
40284;SDS011;25997;50.214;19.354;2023-09-30T02:55:24;14.30;;;9.48;;
40284;SDS011;25997;50.214;19.354;2023-09-30T02:58:26;13.80;;;10.13;;
40284;SDS011;25997;50.214;19.354;2023-09-30T03:01:29;13.40;;;10.32;;
40284;SDS011;25997;50.214;19.354;2023-09-30T03:04:32;12.40;;;10.07;;
40284;SDS011;25997;50.214;19.354;2023-09-30T03:07:35;11.57;;;9.30;;
40284;SDS011;25997;50.214;19.354;2023-09-30T03:10:40;10.95;;;9.23;;
40284;SDS011;25997;50.214;19.354;2023-09-30T03:13:43;12.55;;;10.13;;
40284;SDS011;25997;50.214;19.354;2023-09-30T03:16:45;11.60;;;10.25;;
40284;SDS011;25997;50.214;19.354;2023-09-30T03:19:48;14.77;;;11.07;;
40284;SDS011;25997;50.214;19.354;2023-09-30T03:22:51;11.80;;;9.73;;
40284;SDS011;25997;50.214;19.354;2023-09-30T03:25:56;12.60;;;10.85;;
40284;SDS011;25997;50.214;19.354;2023-09-30T03:28:59;12.60;;;10.80;;
40284;SDS011;25997;50.214;19.354;2023-09-30T03:32:01;14.45;;;10.73;;
40284;SDS011;25997;50.214;19.354;2023-09-30T03:35:04;12.82;;;10.40;;
40284;SDS011;25997;50.214;19.354;2023-09-30T03:38:08;16.20;;;11.18;;
40284;SDS011;25997;50.214;19.354;2023-09-30T03:41:12;16.40;;;11.80;;
40284;SDS011;25997;50.214;19.354;2023-09-30T03:44:15;12.00;;;9.90;;
40284;SDS011;25997;50.214;19.354;2023-09-30T03:47:18;14.30;;;10.18;;
40284;SDS011;25997;50.214;19.354;2023-09-30T03:50:21;18.27;;;10.88;;
40284;SDS011;25997;50.214;19.354;2023-09-30T03:53:25;13.20;;;11.43;;
40284;SDS011;25997;50.214;19.354;2023-09-30T03:56:29;14.45;;;11.40;;
40284;SDS011;25997;50.214;19.354;2023-09-30T03:59:31;12.57;;;10.43;;
40284;SDS011;25997;50.214;19.354;2023-09-30T04:02:34;12.98;;;11.57;;
40284;SDS011;25997;50.214;19.354;2023-09-30T04:05:37;12.93;;;10.98;;
40284;SDS011;25997;50.214;19.354;2023-09-30T04:08:40;15.55;;;12.30;;
40284;SDS011;25997;50.214;19.354;2023-09-30T04:11:45;15.18;;;11.65;;
40284;SDS011;25997;50.214;19.354;2023-09-30T04:14:48;16.90;;;12.48;;
40284;SDS011;25997;50.214;19.354;2023-09-30T04:17:50;14.43;;;11.90;;
40284;SDS011;25997;50.214;19.354;2023-09-30T04:20:53;12.90;;;11.25;;
40284;SDS011;25997;50.214;19.354;2023-09-30T04:23:56;15.02;;;11.70;;
40284;SDS011;25997;50.214;19.354;2023-09-30T04:27:00;13.80;;;11.68;;
40284;SDS011;25997;50.214;19.354;2023-09-30T04:30:03;13.55;;;12.18;;
40284;SDS011;25997;50.214;19.354;2023-09-30T04:33:09;15.73;;;12.00;;
40284;SDS011;25997;50.214;19.354;2023-09-30T04:36:13;18.63;;;12.68;;
40284;SDS011;25997;50.214;19.354;2023-09-30T04:39:16;17.23;;;12.77;;
40284;SDS011;25997;50.214;19.354;2023-09-30T04:42:20;15.85;;;13.05;;
40284;SDS011;25997;50.214;19.354;2023-09-30T04:45:26;18.70;;;13.07;;
40284;SDS011;25997;50.214;19.354;2023-09-30T04:48:28;15.13;;;12.85;;
40284;SDS011;25997;50.214;19.354;2023-09-30T04:51:32;16.90;;;11.88;;
40284;SDS011;25997;50.214;19.354;2023-09-30T04:54:35;16.33;;;12.45;;
40284;SDS011;25997;50.214;19.354;2023-09-30T04:57:39;19.77;;;12.02;;
40284;SDS011;25997;50.214;19.354;2023-09-30T05:00:41;13.65;;;11.95;;
40284;SDS011;25997;50.214;19.354;2023-09-30T05:03:44;16.83;;;11.40;;
40284;SDS011;25997;50.214;19.354;2023-09-30T05:06:50;22.10;;;11.52;;
40284;SDS011;25997;50.214;19.354;2023-09-30T05:09:52;14.85;;;12.20;;
40284;SDS011;25997;50.214;19.354;2023-09-30T05:12:57;18.40;;;12.18;;
40284;SDS011;25997;50.214;19.354;2023-09-30T05:15:59;15.18;;;11.65;;
40284;SDS011;25997;50.214;19.354;2023-09-30T05:19:02;11.13;;;9.57;;
40284;SDS011;25997;50.214;19.354;2023-09-30T05:22:05;12.50;;;11.00;;
40284;SDS011;25997;50.214;19.354;2023-09-30T05:25:08;11.55;;;10.30;;
40284;SDS011;25997;50.214;19.354;2023-09-30T05:28:12;13.27;;;11.82;;
40284;SDS011;25997;50.214;19.354;2023-09-30T05:31:16;13.63;;;10.48;;
40284;SDS011;25997;50.214;19.354;2023-09-30T05:34:18;15.75;;;11.75;;
40284;SDS011;25997;50.214;19.354;2023-09-30T05:37:21;12.75;;;10.63;;
40284;SDS011;25997;50.214;19.354;2023-09-30T05:40:23;14.95;;;10.55;;
40284;SDS011;25997;50.214;19.354;2023-09-30T05:43:29;12.02;;;10.05;;
40284;SDS011;25997;50.214;19.354;2023-09-30T05:46:31;12.10;;;10.15;;
40284;SDS011;25997;50.214;19.354;2023-09-30T05:49:34;11.23;;;9.75;;
40284;SDS011;25997;50.214;19.354;2023-09-30T05:52:37;12.15;;;10.90;;
40284;SDS011;25997;50.214;19.354;2023-09-30T05:55:40;14.38;;;10.75;;
40284;SDS011;25997;50.214;19.354;2023-09-30T05:58:45;15.13;;;11.27;;
40284;SDS011;25997;50.214;19.354;2023-09-30T06:01:48;12.95;;;10.25;;
40284;SDS011;25997;50.214;19.354;2023-09-30T06:04:50;11.30;;;10.05;;
40284;SDS011;25997;50.214;19.354;2023-09-30T06:07:54;15.48;;;10.70;;
40284;SDS011;25997;50.214;19.354;2023-09-30T06:10:56;13.00;;;11.43;;
40284;SDS011;25997;50.214;19.354;2023-09-30T06:14:01;14.73;;;10.80;;
40284;SDS011;25997;50.214;19.354;2023-09-30T06:17:07;15.20;;;11.05;;
40284;SDS011;25997;50.214;19.354;2023-09-30T06:20:11;14.93;;;10.10;;
40284;SDS011;25997;50.214;19.354;2023-09-30T06:23:18;12.90;;;10.77;;
40284;SDS011;25997;50.214;19.354;2023-09-30T06:26:21;12.23;;;10.93;;
40284;SDS011;25997;50.214;19.354;2023-09-30T06:29:26;15.15;;;10.10;;
40284;SDS011;25997;50.214;19.354;2023-09-30T06:32:29;13.55;;;11.13;;
40284;SDS011;25997;50.214;19.354;2023-09-30T06:35:32;12.55;;;11.25;;
40284;SDS011;25997;50.214;19.354;2023-09-30T06:38:38;13.38;;;10.38;;
40284;SDS011;25997;50.214;19.354;2023-09-30T06:41:40;15.65;;;11.65;;
40284;SDS011;25997;50.214;19.354;2023-09-30T06:44:47;13.48;;;12.00;;
40284;SDS011;25997;50.214;19.354;2023-09-30T06:47:50;16.13;;;12.90;;
40284;SDS011;25997;50.214;19.354;2023-09-30T06:50:53;16.13;;;12.10;;
40284;SDS011;25997;50.214;19.354;2023-09-30T06:53:55;12.48;;;11.18;;
40284;SDS011;25997;50.214;19.354;2023-09-30T06:56:58;18.92;;;11.80;;
40284;SDS011;25997;50.214;19.354;2023-09-30T07:00:04;14.35;;;12.00;;
40284;SDS011;25997;50.214;19.354;2023-09-30T07:03:09;14.15;;;12.10;;
40284;SDS011;25997;50.214;19.354;2023-09-30T07:06:12;15.40;;;11.90;;
40284;SDS011;25997;50.214;19.354;2023-09-30T07:09:14;11.98;;;10.70;;
40284;SDS011;25997;50.214;19.354;2023-09-30T07:12:17;13.63;;;11.20;;
40284;SDS011;25997;50.214;19.354;2023-09-30T07:15:22;12.90;;;11.60;;
40284;SDS011;25997;50.214;19.354;2023-09-30T07:18:25;17.42;;;12.65;;
40284;SDS011;25997;50.214;19.354;2023-09-30T07:21:28;15.43;;;11.98;;
40284;SDS011;25997;50.214;19.354;2023-09-30T07:24:31;13.75;;;12.27;;
40284;SDS011;25997;50.214;19.354;2023-09-30T07:27:33;19.38;;;13.85;;
40284;SDS011;25997;50.214;19.354;2023-09-30T07:30:38;16.20;;;13.63;;
40284;SDS011;25997;50.214;19.354;2023-09-30T07:33:42;20.58;;;14.52;;
40284;SDS011;25997;50.214;19.354;2023-09-30T07:36:45;18.20;;;14.30;;
40284;SDS011;25997;50.214;19.354;2023-09-30T07:39:48;13.43;;;12.00;;
40284;SDS011;25997;50.214;19.354;2023-09-30T07:42:51;16.92;;;11.95;;
40284;SDS011;25997;50.214;19.354;2023-09-30T07:45:55;15.00;;;12.07;;
40284;SDS011;25997;50.214;19.354;2023-09-30T07:48:58;17.42;;;12.07;;
40284;SDS011;25997;50.214;19.354;2023-09-30T07:52:01;13.65;;;12.35;;
40284;SDS011;25997;50.214;19.354;2023-09-30T07:55:05;15.50;;;12.07;;
40284;SDS011;25997;50.214;19.354;2023-09-30T07:58:09;14.90;;;13.10;;
40284;SDS011;25997;50.214;19.354;2023-09-30T08:01:13;20.38;;;17.42;;
40284;SDS011;25997;50.214;19.354;2023-09-30T08:04:16;16.00;;;14.20;;
40284;SDS011;25997;50.214;19.354;2023-09-30T08:07:20;19.33;;;16.00;;
40284;SDS011;25997;50.214;19.354;2023-09-30T08:10:23;18.17;;;16.35;;
40284;SDS011;25997;50.214;19.354;2023-09-30T08:13:28;18.45;;;16.55;;
40284;SDS011;25997;50.214;19.354;2023-09-30T08:16:32;17.88;;;15.40;;
40284;SDS011;25997;50.214;19.354;2023-09-30T08:19:35;18.25;;;16.35;;
40284;SDS011;25997;50.214;19.354;2023-09-30T08:22:38;18.17;;;15.43;;
40284;SDS011;25997;50.214;19.354;2023-09-30T08:25:41;16.63;;;13.73;;
40284;SDS011;25997;50.214;19.354;2023-09-30T08:28:44;17.38;;;14.63;;
40284;SDS011;25997;50.214;19.354;2023-09-30T08:31:48;17.65;;;14.02;;
40284;SDS011;25997;50.214;19.354;2023-09-30T08:34:51;19.10;;;14.65;;
40284;SDS011;25997;50.214;19.354;2023-09-30T08:37:56;17.55;;;13.27;;
40284;SDS011;25997;50.214;19.354;2023-09-30T08:40:59;16.88;;;13.65;;
40284;SDS011;25997;50.214;19.354;2023-09-30T08:44:04;17.02;;;13.57;;
40284;SDS011;25997;50.214;19.354;2023-09-30T08:47:08;16.25;;;12.85;;
40284;SDS011;25997;50.214;19.354;2023-09-30T08:50:12;16.48;;;14.15;;
40284;SDS011;25997;50.214;19.354;2023-09-30T08:53:16;18.50;;;13.52;;
40284;SDS011;25997;50.214;19.354;2023-09-30T08:56:19;20.00;;;16.88;;
40284;SDS011;25997;50.214;19.354;2023-09-30T08:59:26;16.52;;;14.73;;
40284;SDS011;25997;50.214;19.354;2023-09-30T09:02:31;18.73;;;14.77;;
40284;SDS011;25997;50.214;19.354;2023-09-30T09:05:36;18.48;;;15.93;;
40284;SDS011;25997;50.214;19.354;2023-09-30T09:08:39;16.88;;;15.13;;
40284;SDS011;25997;50.214;19.354;2023-09-30T09:11:42;18.27;;;16.30;;
40284;SDS011;25997;50.214;19.354;2023-09-30T09:14:45;16.05;;;14.45;;
40284;SDS011;25997;50.214;19.354;2023-09-30T09:17:49;18.27;;;14.85;;
40284;SDS011;25997;50.214;19.354;2023-09-30T09:20:52;18.90;;;16.92;;
40284;SDS011;25997;50.214;19.354;2023-09-30T09:24:10;19.15;;;16.42;;
40284;SDS011;25997;50.214;19.354;2023-09-30T09:27:28;18.88;;;14.85;;
40284;SDS011;25997;50.214;19.354;2023-09-30T09:30:37;17.83;;;15.05;;
40284;SDS011;25997;50.214;19.354;2023-09-30T09:33:43;17.98;;;16.08;;
40284;SDS011;25997;50.214;19.354;2023-09-30T09:36:45;19.30;;;16.98;;
40284;SDS011;25997;50.214;19.354;2023-09-30T09:39:49;18.08;;;16.30;;
40284;SDS011;25997;50.214;19.354;2023-09-30T09:42:53;21.05;;;18.42;;
40284;SDS011;25997;50.214;19.354;2023-09-30T09:45:57;17.77;;;15.80;;
40284;SDS011;25997;50.214;19.354;2023-09-30T09:49:05;16.40;;;14.82;;
40284;SDS011;25997;50.214;19.354;2023-09-30T09:52:08;21.08;;;19.08;;
40284;SDS011;25997;50.214;19.354;2023-09-30T09:55:15;20.98;;;18.70;;
40284;SDS011;25997;50.214;19.354;2023-09-30T09:58:19;18.90;;;16.95;;
40284;SDS011;25997;50.214;19.354;2023-09-30T10:01:22;18.92;;;16.77;;
40284;SDS011;25997;50.214;19.354;2023-09-30T10:04:27;19.13;;;17.05;;
40284;SDS011;25997;50.214;19.354;2023-09-30T10:07:33;20.80;;;16.40;;
40284;SDS011;25997;50.214;19.354;2023-09-30T10:10:38;17.90;;;16.25;;
40284;SDS011;25997;50.214;19.354;2023-09-30T10:13:51;20.15;;;18.15;;
40284;SDS011;25997;50.214;19.354;2023-09-30T10:16:58;24.67;;;15.77;;
40284;SDS011;25997;50.214;19.354;2023-09-30T10:20:06;19.63;;;17.10;;
40284;SDS011;25997;50.214;19.354;2023-09-30T10:23:23;19.48;;;16.33;;
40284;SDS011;25997;50.214;19.354;2023-09-30T10:26:27;19.85;;;17.00;;
40284;SDS011;25997;50.214;19.354;2023-09-30T10:29:39;19.45;;;17.40;;
40284;SDS011;25997;50.214;19.354;2023-09-30T10:36:14;25.85;;;23.05;;
40284;SDS011;25997;50.214;19.354;2023-09-30T10:43:00;21.63;;;19.20;;
40284;SDS011;25997;50.214;19.354;2023-09-30T10:46:03;21.00;;;18.83;;
40284;SDS011;25997;50.214;19.354;2023-09-30T10:52:36;20.67;;;18.67;;
40284;SDS011;25997;50.214;19.354;2023-09-30T10:55:40;21.25;;;18.92;;
40284;SDS011;25997;50.214;19.354;2023-09-30T10:58:44;19.58;;;17.67;;
40284;SDS011;25997;50.214;19.354;2023-09-30T11:01:49;20.83;;;18.73;;
40284;SDS011;25997;50.214;19.354;2023-09-30T11:04:52;21.73;;;19.52;;
40284;SDS011;25997;50.214;19.354;2023-09-30T11:07:57;21.17;;;18.98;;
40284;SDS011;25997;50.214;19.354;2023-09-30T11:11:04;22.75;;;20.42;;
40284;SDS011;25997;50.214;19.354;2023-09-30T11:17:28;22.30;;;19.35;;
40284;SDS011;25997;50.214;19.354;2023-09-30T11:20:31;22.40;;;19.27;;
40284;SDS011;25997;50.214;19.354;2023-09-30T11:23:36;17.23;;;15.43;;
40284;SDS011;25997;50.214;19.354;2023-09-30T11:26:39;16.77;;;15.15;;
40284;SDS011;25997;50.214;19.354;2023-09-30T11:29:48;17.77;;;15.30;;
40284;SDS011;25997;50.214;19.354;2023-09-30T11:32:58;15.70;;;14.27;;
40284;SDS011;25997;50.214;19.354;2023-09-30T11:36:02;19.65;;;17.80;;
40284;SDS011;25997;50.214;19.354;2023-09-30T11:39:07;22.23;;;20.00;;
40284;SDS011;25997;50.214;19.354;2023-09-30T11:42:14;22.30;;;20.15;;
40284;SDS011;25997;50.214;19.354;2023-09-30T11:45:23;18.65;;;16.55;;
40284;SDS011;25997;50.214;19.354;2023-09-30T11:48:27;19.55;;;17.60;;
40284;SDS011;25997;50.214;19.354;2023-09-30T11:51:41;21.00;;;18.88;;
40284;SDS011;25997;50.214;19.354;2023-09-30T11:54:48;17.73;;;15.73;;
40284;SDS011;25997;50.214;19.354;2023-09-30T11:57:51;17.15;;;15.40;;
40284;SDS011;25997;50.214;19.354;2023-09-30T12:00:56;14.77;;;13.35;;
40284;SDS011;25997;50.214;19.354;2023-09-30T12:04:00;15.70;;;13.63;;
40284;SDS011;25997;50.214;19.354;2023-09-30T12:07:05;16.48;;;14.13;;
40284;SDS011;25997;50.214;19.354;2023-09-30T12:10:10;15.82;;;14.13;;
40284;SDS011;25997;50.214;19.354;2023-09-30T12:13:15;19.25;;;13.13;;
40284;SDS011;25997;50.214;19.354;2023-09-30T12:16:19;16.95;;;13.20;;
40284;SDS011;25997;50.214;19.354;2023-09-30T12:19:22;13.57;;;12.18;;
40284;SDS011;25997;50.214;19.354;2023-09-30T12:22:26;11.95;;;10.77;;
40284;SDS011;25997;50.214;19.354;2023-09-30T12:25:31;11.60;;;10.02;;
40284;SDS011;25997;50.214;19.354;2023-09-30T12:28:34;10.85;;;9.85;;
40284;SDS011;25997;50.214;19.354;2023-09-30T12:31:37;9.60;;;8.68;;
40284;SDS011;25997;50.214;19.354;2023-09-30T12:34:40;13.32;;;10.43;;
40284;SDS011;25997;50.214;19.354;2023-09-30T12:37:42;14.27;;;11.30;;
40284;SDS011;25997;50.214;19.354;2023-09-30T12:40:48;13.00;;;9.57;;
40284;SDS011;25997;50.214;19.354;2023-09-30T12:43:50;9.13;;;7.93;;
40284;SDS011;25997;50.214;19.354;2023-09-30T12:46:54;9.52;;;7.10;;
40284;SDS011;25997;50.214;19.354;2023-09-30T12:49:57;8.27;;;5.57;;
40284;SDS011;25997;50.214;19.354;2023-09-30T12:53:02;11.13;;;6.57;;
40284;SDS011;25997;50.214;19.354;2023-09-30T12:56:07;7.78;;;6.10;;
40284;SDS011;25997;50.214;19.354;2023-09-30T12:59:10;13.02;;;7.28;;
40284;SDS011;25997;50.214;19.354;2023-09-30T13:02:13;8.15;;;7.00;;
40284;SDS011;25997;50.214;19.354;2023-09-30T13:05:15;8.98;;;7.15;;
40284;SDS011;25997;50.214;19.354;2023-09-30T13:08:18;11.18;;;8.45;;
40284;SDS011;25997;50.214;19.354;2023-09-30T13:11:22;12.80;;;10.10;;
40284;SDS011;25997;50.214;19.354;2023-09-30T13:14:25;10.15;;;7.93;;
40284;SDS011;25997;50.214;19.354;2023-09-30T13:17:28;12.57;;;7.78;;
40284;SDS011;25997;50.214;19.354;2023-09-30T13:20:31;11.60;;;8.00;;
40284;SDS011;25997;50.214;19.354;2023-09-30T13:23:34;15.30;;;11.95;;
40284;SDS011;25997;50.214;19.354;2023-09-30T13:26:41;20.20;;;15.25;;
40284;SDS011;25997;50.214;19.354;2023-09-30T13:29:44;19.02;;;16.95;;
40284;SDS011;25997;50.214;19.354;2023-09-30T13:32:49;19.45;;;15.98;;
40284;SDS011;25997;50.214;19.354;2023-09-30T13:35:51;18.85;;;16.70;;
40284;SDS011;25997;50.214;19.354;2023-09-30T13:38:56;20.45;;;15.63;;
40284;SDS011;25997;50.214;19.354;2023-09-30T13:42:00;15.63;;;13.18;;
40284;SDS011;25997;50.214;19.354;2023-09-30T13:45:04;17.15;;;13.73;;
40284;SDS011;25997;50.214;19.354;2023-09-30T13:48:07;16.10;;;13.77;;
40284;SDS011;25997;50.214;19.354;2023-09-30T13:51:11;18.45;;;12.80;;
40284;SDS011;25997;50.214;19.354;2023-09-30T13:54:13;19.40;;;12.85;;
40284;SDS011;25997;50.214;19.354;2023-09-30T13:57:20;16.08;;;12.05;;
40284;SDS011;25997;50.214;19.354;2023-09-30T14:00:23;14.35;;;12.02;;
40284;SDS011;25997;50.214;19.354;2023-09-30T14:03:26;14.43;;;10.90;;
40284;SDS011;25997;50.214;19.354;2023-09-30T14:06:31;16.90;;;11.48;;
40284;SDS011;25997;50.214;19.354;2023-09-30T14:09:42;14.52;;;10.70;;
40284;SDS011;25997;50.214;19.354;2023-09-30T14:12:56;16.23;;;11.77;;
40284;SDS011;25997;50.214;19.354;2023-09-30T14:16:00;20.05;;;14.48;;
40284;SDS011;25997;50.214;19.354;2023-09-30T14:19:03;16.70;;;14.80;;
40284;SDS011;25997;50.214;19.354;2023-09-30T14:22:06;18.40;;;13.60;;
40284;SDS011;25997;50.214;19.354;2023-09-30T14:25:10;16.58;;;11.15;;
40284;SDS011;25997;50.214;19.354;2023-09-30T14:28:13;10.52;;;7.53;;
40284;SDS011;25997;50.214;19.354;2023-09-30T14:31:16;13.35;;;8.35;;
40284;SDS011;25997;50.214;19.354;2023-09-30T14:34:19;14.50;;;8.82;;
40284;SDS011;25997;50.214;19.354;2023-09-30T14:37:21;13.95;;;8.27;;
40284;SDS011;25997;50.214;19.354;2023-09-30T14:40:24;11.90;;;8.07;;
40284;SDS011;25997;50.214;19.354;2023-09-30T14:43:28;9.30;;;7.13;;
40284;SDS011;25997;50.214;19.354;2023-09-30T14:46:30;15.43;;;7.85;;
40284;SDS011;25997;50.214;19.354;2023-09-30T14:49:33;13.02;;;7.93;;
40284;SDS011;25997;50.214;19.354;2023-09-30T14:52:36;15.15;;;11.25;;
40284;SDS011;25997;50.214;19.354;2023-09-30T14:55:38;12.57;;;7.57;;
40284;SDS011;25997;50.214;19.354;2023-09-30T14:58:43;13.70;;;7.75;;
40284;SDS011;25997;50.214;19.354;2023-09-30T15:01:45;12.90;;;6.55;;
40284;SDS011;25997;50.214;19.354;2023-09-30T15:04:48;10.93;;;6.60;;
40284;SDS011;25997;50.214;19.354;2023-09-30T15:07:51;11.52;;;6.13;;
40284;SDS011;25997;50.214;19.354;2023-09-30T15:10:53;11.00;;;6.13;;
40284;SDS011;25997;50.214;19.354;2023-09-30T15:13:57;8.13;;;5.68;;
40284;SDS011;25997;50.214;19.354;2023-09-30T15:16:59;12.70;;;6.90;;
40284;SDS011;25997;50.214;19.354;2023-09-30T15:20:02;11.75;;;6.45;;
40284;SDS011;25997;50.214;19.354;2023-09-30T15:23:05;9.35;;;6.30;;
40284;SDS011;25997;50.214;19.354;2023-09-30T15:26:08;10.32;;;6.35;;
40284;SDS011;25997;50.214;19.354;2023-09-30T15:29:12;8.73;;;5.85;;
40284;SDS011;25997;50.214;19.354;2023-09-30T15:32:16;12.50;;;7.35;;
40284;SDS011;25997;50.214;19.354;2023-09-30T15:35:19;11.90;;;5.88;;
40284;SDS011;25997;50.214;19.354;2023-09-30T15:38:21;11.50;;;5.95;;
40284;SDS011;25997;50.214;19.354;2023-09-30T15:41:24;10.25;;;6.10;;
40284;SDS011;25997;50.214;19.354;2023-09-30T15:44:28;11.70;;;6.50;;
40284;SDS011;25997;50.214;19.354;2023-09-30T15:47:31;10.30;;;5.90;;
40284;SDS011;25997;50.214;19.354;2023-09-30T15:50:33;9.15;;;6.03;;
40284;SDS011;25997;50.214;19.354;2023-09-30T15:53:36;10.35;;;5.90;;
40284;SDS011;25997;50.214;19.354;2023-09-30T15:56:39;10.63;;;6.45;;
40284;SDS011;25997;50.214;19.354;2023-09-30T15:59:43;12.52;;;5.88;;
40284;SDS011;25997;50.214;19.354;2023-09-30T16:02:46;12.55;;;6.10;;
40284;SDS011;25997;50.214;19.354;2023-09-30T16:05:48;15.93;;;7.75;;
40284;SDS011;25997;50.214;19.354;2023-09-30T16:08:52;12.35;;;7.28;;
40284;SDS011;25997;50.214;19.354;2023-09-30T16:11:54;10.93;;;7.45;;
40284;SDS011;25997;50.214;19.354;2023-09-30T16:14:58;12.05;;;7.45;;
40284;SDS011;25997;50.214;19.354;2023-09-30T16:18:06;10.02;;;6.47;;
40284;SDS011;25997;50.214;19.354;2023-09-30T16:21:08;11.25;;;6.15;;
40284;SDS011;25997;50.214;19.354;2023-09-30T16:24:11;11.40;;;6.05;;
40284;SDS011;25997;50.214;19.354;2023-09-30T16:27:14;10.90;;;7.88;;
40284;SDS011;25997;50.214;19.354;2023-09-30T16:30:18;10.52;;;5.90;;
40284;SDS011;25997;50.214;19.354;2023-09-30T16:33:21;14.55;;;7.07;;
40284;SDS011;25997;50.214;19.354;2023-09-30T16:36:25;9.68;;;6.03;;
40284;SDS011;25997;50.214;19.354;2023-09-30T16:39:28;10.43;;;5.55;;
40284;SDS011;25997;50.214;19.354;2023-09-30T16:42:31;11.02;;;6.28;;
40284;SDS011;25997;50.214;19.354;2023-09-30T16:45:35;15.38;;;6.53;;
40284;SDS011;25997;50.214;19.354;2023-09-30T16:48:37;13.52;;;6.38;;
40284;SDS011;25997;50.214;19.354;2023-09-30T16:51:40;9.80;;;6.03;;
40284;SDS011;25997;50.214;19.354;2023-09-30T16:54:43;8.60;;;5.20;;
40284;SDS011;25997;50.214;19.354;2023-09-30T16:57:45;11.80;;;6.40;;
40284;SDS011;25997;50.214;19.354;2023-09-30T17:00:49;15.25;;;6.97;;
40284;SDS011;25997;50.214;19.354;2023-09-30T17:03:52;11.48;;;5.82;;
40284;SDS011;25997;50.214;19.354;2023-09-30T17:06:55;11.93;;;5.53;;
40284;SDS011;25997;50.214;19.354;2023-09-30T17:09:58;10.02;;;5.97;;
40284;SDS011;25997;50.214;19.354;2023-09-30T17:13:02;11.43;;;4.97;;
40284;SDS011;25997;50.214;19.354;2023-09-30T17:16:07;10.45;;;6.03;;
40284;SDS011;25997;50.214;19.354;2023-09-30T17:19:09;10.70;;;5.40;;
40284;SDS011;25997;50.214;19.354;2023-09-30T17:22:12;10.35;;;5.28;;
40284;SDS011;25997;50.214;19.354;2023-09-30T17:25:15;9.23;;;5.40;;
40284;SDS011;25997;50.214;19.354;2023-09-30T17:28:18;12.93;;;5.93;;
40284;SDS011;25997;50.214;19.354;2023-09-30T17:31:25;8.45;;;5.38;;
40284;SDS011;25997;50.214;19.354;2023-09-30T17:34:27;13.20;;;5.75;;
40284;SDS011;25997;50.214;19.354;2023-09-30T17:37:30;10.10;;;4.93;;
40284;SDS011;25997;50.214;19.354;2023-09-30T17:40:33;11.98;;;5.78;;
40284;SDS011;25997;50.214;19.354;2023-09-30T17:43:36;7.72;;;5.20;;
40284;SDS011;25997;50.214;19.354;2023-09-30T17:46:41;15.25;;;7.75;;
40284;SDS011;25997;50.214;19.354;2023-09-30T17:49:45;11.88;;;7.15;;
40284;SDS011;25997;50.214;19.354;2023-09-30T17:52:48;37.05;;;24.77;;
40284;SDS011;25997;50.214;19.354;2023-09-30T17:55:50;35.80;;;28.90;;
40284;SDS011;25997;50.214;19.354;2023-09-30T17:58:53;51.92;;;40.10;;